sensor_id;sensor_type;location;lat;lon;timestamp;pressure;altitude;pressure_sealevel;temperature;humidity
39769;BME280;38939;47.824;14.642;2023-04-19T00:00:39;97235.13;;;8.81;97.23
39769;BME280;38939;47.824;14.642;2023-04-19T00:01:41;97233.31;;;8.81;97.15
39769;BME280;38939;47.824;14.642;2023-04-19T00:02:43;97233.16;;;8.83;96.80
39769;BME280;38939;47.824;14.642;2023-04-19T00:03:45;97229.53;;;8.84;96.91
39769;BME280;38939;47.824;14.642;2023-04-19T00:04:47;97228.56;;;8.85;96.70
39769;BME280;38939;47.824;14.642;2023-04-19T00:05:49;97235.38;;;8.86;96.88
39769;BME280;38939;47.824;14.642;2023-04-19T00:06:54;97226.59;;;8.87;97.05
39769;BME280;38939;47.824;14.642;2023-04-19T00:07:56;97234.41;;;8.87;96.79
39769;BME280;38939;47.824;14.642;2023-04-19T00:08:57;97233.78;;;8.85;97.14
39769;BME280;38939;47.824;14.642;2023-04-19T00:09:59;97233.94;;;8.84;97.31
39769;BME280;38939;47.824;14.642;2023-04-19T00:11:01;97229.53;;;8.84;96.97
39769;BME280;38939;47.824;14.642;2023-04-19T00:12:03;97231.34;;;8.84;97.00
39769;BME280;38939;47.824;14.642;2023-04-19T00:13:05;97232.94;;;8.85;97.11
39769;BME280;38939;47.824;14.642;2023-04-19T00:14:07;97226.94;;;8.84;97.10
39769;BME280;38939;47.824;14.642;2023-04-19T00:15:09;97229.53;;;8.84;96.74
39769;BME280;38939;47.824;14.642;2023-04-19T00:16:11;97235.56;;;8.85;96.68
39769;BME280;38939;47.824;14.642;2023-04-19T00:17:12;97226.16;;;8.84;96.94
39769;BME280;38939;47.824;14.642;2023-04-19T00:18:14;97227.56;;;8.86;96.69
39769;BME280;38939;47.824;14.642;2023-04-19T00:19:16;97224.16;;;8.86;96.85
39769;BME280;38939;47.824;14.642;2023-04-19T00:20:19;97222.38;;;8.86;96.98
39769;BME280;38939;47.824;14.642;2023-04-19T00:21:21;97220.75;;;8.85;96.65
39769;BME280;38939;47.824;14.642;2023-04-19T00:22:23;97219.13;;;8.84;96.70
39769;BME280;38939;47.824;14.642;2023-04-19T00:23:25;97215.91;;;8.82;96.63
39769;BME280;38939;47.824;14.642;2023-04-19T00:24:27;97221.13;;;8.82;96.78
39769;BME280;38939;47.824;14.642;2023-04-19T00:25:28;97215.13;;;8.81;96.59
39769;BME280;38939;47.824;14.642;2023-04-19T00:26:32;97218.69;;;8.80;96.88
39769;BME280;38939;47.824;14.642;2023-04-19T00:27:34;97220.31;;;8.81;96.85
39769;BME280;38939;47.824;14.642;2023-04-19T00:28:36;97212.34;;;8.83;96.91
39769;BME280;38939;47.824;14.642;2023-04-19T00:29:38;97213.94;;;8.84;96.83
39769;BME280;38939;47.824;14.642;2023-04-19T00:30:40;97217.34;;;8.85;96.71
39769;BME280;38939;47.824;14.642;2023-04-19T00:31:42;97210.34;;;8.85;96.62
39769;BME280;38939;47.824;14.642;2023-04-19T00:32:43;97211.16;;;8.86;96.83
39769;BME280;38939;47.824;14.642;2023-04-19T00:33:45;97208.72;;;8.84;96.36
39769;BME280;38939;47.824;14.642;2023-04-19T00:34:47;97208.72;;;8.84;96.56
39769;BME280;38939;47.824;14.642;2023-04-19T00:35:49;97205.16;;;8.85;96.41
39769;BME280;38939;47.824;14.642;2023-04-19T00:36:51;97210.53;;;8.84;96.73
39769;BME280;38939;47.824;14.642;2023-04-19T00:37:53;97197.25;;;8.78;96.70
39769;BME280;38939;47.824;14.642;2023-04-19T00:38:55;97196.22;;;8.73;97.06
39769;BME280;38939;47.824;14.642;2023-04-19T00:39:58;97199.78;;;8.72;97.24
39769;BME280;38939;47.824;14.642;2023-04-19T00:41:00;97202.22;;;8.73;97.23
39769;BME280;38939;47.824;14.642;2023-04-19T00:42:01;97203.00;;;8.74;96.95
39769;BME280;38939;47.824;14.642;2023-04-19T00:43:03;97201.84;;;8.76;97.24
39769;BME280;38939;47.824;14.642;2023-04-19T00:44:05;97202.84;;;8.75;97.48
39769;BME280;38939;47.824;14.642;2023-04-19T00:45:07;97200.41;;;8.74;97.52
39769;BME280;38939;47.824;14.642;2023-04-19T00:46:09;97198.81;;;8.73;97.48
39769;BME280;38939;47.824;14.642;2023-04-19T00:47:11;97194.13;;;8.68;97.60
39769;BME280;38939;47.824;14.642;2023-04-19T00:48:14;97196.94;;;8.67;97.75
39769;BME280;38939;47.824;14.642;2023-04-19T00:49:16;97194.69;;;8.64;97.89
39769;BME280;38939;47.824;14.642;2023-04-19T00:50:20;97190.50;;;8.63;98.07
39769;BME280;38939;47.824;14.642;2023-04-19T00:51:22;97197.28;;;8.64;97.93
39769;BME280;38939;47.824;14.642;2023-04-19T00:52:24;97192.88;;;8.64;98.26
39769;BME280;38939;47.824;14.642;2023-04-19T00:53:26;97190.09;;;8.66;98.28
39769;BME280;38939;47.824;14.642;2023-04-19T00:54:28;97198.53;;;8.68;97.76
39769;BME280;38939;47.824;14.642;2023-04-19T00:55:30;97193.97;;;8.70;97.85
39769;BME280;38939;47.824;14.642;2023-04-19T00:56:32;97193.78;;;8.71;97.58
39769;BME280;38939;47.824;14.642;2023-04-19T00:57:36;97183.56;;;8.70;97.50
39769;BME280;38939;47.824;14.642;2023-04-19T00:58:38;97193.78;;;8.71;97.37
39769;BME280;38939;47.824;14.642;2023-04-19T00:59:41;97194.22;;;8.75;97.91
39769;BME280;38939;47.824;14.642;2023-04-19T01:00:43;97188.19;;;8.74;97.19
39769;BME280;38939;47.824;14.642;2023-04-19T01:01:45;97193.06;;;8.77;97.41
39769;BME280;38939;47.824;14.642;2023-04-19T01:02:47;97191.25;;;8.78;97.23
39769;BME280;38939;47.824;14.642;2023-04-19T01:03:49;97196.09;;;8.81;97.10
39769;BME280;38939;47.824;14.642;2023-04-19T01:04:51;97183.09;;;8.81;97.19
39769;BME280;38939;47.824;14.642;2023-04-19T01:05:53;97185.88;;;8.79;97.22
39769;BME280;38939;47.824;14.642;2023-04-19T01:06:55;97185.44;;;8.76;97.38
39769;BME280;38939;47.824;14.642;2023-04-19T01:07:57;97184.56;;;8.69;97.03
39769;BME280;38939;47.824;14.642;2023-04-19T01:08:59;97182.47;;;8.64;97.19
39769;BME280;38939;47.824;14.642;2023-04-19T01:10:01;97183.03;;;8.59;97.40
39769;BME280;38939;47.824;14.642;2023-04-19T01:11:04;97182.06;;;8.60;97.46
39769;BME280;38939;47.824;14.642;2023-04-19T01:12:06;97185.28;;;8.63;97.40
39769;BME280;38939;47.824;14.642;2023-04-19T01:13:08;97182.69;;;8.63;97.09
39769;BME280;38939;47.824;14.642;2023-04-19T01:14:09;97181.50;;;8.65;97.29
39769;BME280;38939;47.824;14.642;2023-04-19T01:15:11;97181.13;;;8.68;97.09
39769;BME280;38939;47.824;14.642;2023-04-19T01:16:13;97181.56;;;8.72;97.49
39769;BME280;38939;47.824;14.642;2023-04-19T01:17:15;97180.59;;;8.73;97.38
39769;BME280;38939;47.824;14.642;2023-04-19T01:18:18;97166.59;;;8.74;96.92
39769;BME280;38939;47.824;14.642;2023-04-19T01:19:20;97168.56;;;8.72;97.24
39769;BME280;38939;47.824;14.642;2023-04-19T01:20:22;97174.78;;;8.71;96.90
39769;BME280;38939;47.824;14.642;2023-04-19T01:21:24;97174.16;;;8.69;96.83
39769;BME280;38939;47.824;14.642;2023-04-19T01:22:26;97163.13;;;8.67;97.23
39769;BME280;38939;47.824;14.642;2023-04-19T01:23:29;97168.94;;;8.69;97.23
39769;BME280;38939;47.824;14.642;2023-04-19T01:24:31;97166.97;;;8.71;96.91
39769;BME280;38939;47.824;14.642;2023-04-19T01:25:33;97165.00;;;8.73;96.97
39769;BME280;38939;47.824;14.642;2023-04-19T01:26:36;97160.75;;;8.72;96.80
39769;BME280;38939;47.824;14.642;2023-04-19T01:27:38;97162.56;;;8.71;96.61
39769;BME280;38939;47.824;14.642;2023-04-19T01:28:40;97157.19;;;8.73;96.87
39769;BME280;38939;47.824;14.642;2023-04-19T01:29:42;97154.75;;;8.71;96.93
39769;BME280;38939;47.824;14.642;2023-04-19T01:30:44;97155.56;;;8.72;96.69
39769;BME280;38939;47.824;14.642;2023-04-19T01:31:46;97158.16;;;8.72;96.45
39769;BME280;38939;47.824;14.642;2023-04-19T01:32:51;97158.00;;;8.73;96.62
39769;BME280;38939;47.824;14.642;2023-04-19T01:33:53;97157.81;;;8.75;96.64
39769;BME280;38939;47.824;14.642;2023-04-19T01:34:55;97156.19;;;8.74;96.62
39769;BME280;38939;47.824;14.642;2023-04-19T01:35:57;97151.97;;;8.73;96.35
39769;BME280;38939;47.824;14.642;2023-04-19T01:36:59;97150.53;;;8.70;96.35
39769;BME280;38939;47.824;14.642;2023-04-19T01:38:01;97155.56;;;8.72;96.32
39769;BME280;38939;47.824;14.642;2023-04-19T01:39:03;97156.19;;;8.74;96.36
39769;BME280;38939;47.824;14.642;2023-04-19T01:40:05;97155.38;;;8.73;96.26
39769;BME280;38939;47.824;14.642;2023-04-19T01:41:07;97151.78;;;8.74;96.25
39769;BME280;38939;47.824;14.642;2023-04-19T01:42:08;97151.59;;;8.76;96.38
39769;BME280;38939;47.824;14.642;2023-04-19T01:43:11;97153.22;;;8.77;96.18
39769;BME280;38939;47.824;14.642;2023-04-19T01:44:14;97146.41;;;8.76;96.29
39769;BME280;38939;47.824;14.642;2023-04-19T01:45:16;97143.78;;;8.76;95.97
39769;BME280;38939;47.824;14.642;2023-04-19T01:46:18;97147.41;;;8.75;96.32
39769;BME280;38939;47.824;14.642;2023-04-19T01:47:20;97150.97;;;8.74;96.24
39769;BME280;38939;47.824;14.642;2023-04-19T01:48:22;97146.97;;;8.71;96.42
39769;BME280;38939;47.824;14.642;2023-04-19T01:49:24;97150.75;;;8.69;96.67
39769;BME280;38939;47.824;14.642;2023-04-19T01:50:26;97147.13;;;8.70;96.56
39769;BME280;38939;47.824;14.642;2023-04-19T01:51:28;97153.34;;;8.69;96.50
39769;BME280;38939;47.824;14.642;2023-04-19T01:52:29;97141.94;;;8.70;96.33
39769;BME280;38939;47.824;14.642;2023-04-19T01:53:31;97141.31;;;8.68;96.19
39769;BME280;38939;47.824;14.642;2023-04-19T01:54:33;97147.53;;;8.67;96.29
39769;BME280;38939;47.824;14.642;2023-04-19T01:55:35;97144.28;;;8.65;96.89
39769;BME280;38939;47.824;14.642;2023-04-19T01:56:37;97142.66;;;8.64;97.00
39769;BME280;38939;47.824;14.642;2023-04-19T01:57:39;97142.84;;;8.62;96.82
39769;BME280;38939;47.824;14.642;2023-04-19T01:58:42;97140.88;;;8.64;97.03
39769;BME280;38939;47.824;14.642;2023-04-19T01:59:44;97145.28;;;8.64;96.80
39769;BME280;38939;47.824;14.642;2023-04-19T02:00:46;97139.63;;;8.60;97.07
39769;BME280;38939;47.824;14.642;2023-04-19T02:01:48;97145.03;;;8.58;96.72
39769;BME280;38939;47.824;14.642;2023-04-19T02:02:49;97140.19;;;8.55;96.91
39769;BME280;38939;47.824;14.642;2023-04-19T02:03:52;97138.38;;;8.56;97.23
39769;BME280;38939;47.824;14.642;2023-04-19T02:04:54;97140.97;;;8.56;97.09
39769;BME280;38939;47.824;14.642;2023-04-19T02:05:56;97143.78;;;8.54;97.47
39769;BME280;38939;47.824;14.642;2023-04-19T02:06:58;97140.19;;;8.55;97.49
39769;BME280;38939;47.824;14.642;2023-04-19T02:08:00;97140.19;;;8.55;97.37
39769;BME280;38939;47.824;14.642;2023-04-19T02:09:03;97140.78;;;8.57;97.27
39769;BME280;38939;47.824;14.642;2023-04-19T02:10:08;97139.81;;;8.58;97.53
39769;BME280;38939;47.824;14.642;2023-04-19T02:11:10;97135.59;;;8.57;97.46
39769;BME280;38939;47.824;14.642;2023-04-19T02:12:12;97134.97;;;8.55;97.25
39769;BME280;38939;47.824;14.642;2023-04-19T02:13:14;97131.94;;;8.52;97.41
39769;BME280;38939;47.824;14.642;2023-04-19T02:14:16;97131.13;;;8.51;97.14
39769;BME280;38939;47.824;14.642;2023-04-19T02:15:18;97125.75;;;8.53;97.40
39769;BME280;38939;47.824;14.642;2023-04-19T02:16:20;97130.78;;;8.54;97.37
39769;BME280;38939;47.824;14.642;2023-04-19T02:17:22;97128.81;;;8.56;96.98
39769;BME280;38939;47.824;14.642;2023-04-19T02:18:24;97129.59;;;8.57;97.25
39769;BME280;38939;47.824;14.642;2023-04-19T02:19:26;97128.81;;;8.56;97.28
39769;BME280;38939;47.824;14.642;2023-04-19T02:20:28;97121.78;;;8.57;96.86
39769;BME280;38939;47.824;14.642;2023-04-19T02:21:31;97127.78;;;8.57;96.70
39769;BME280;38939;47.824;14.642;2023-04-19T02:22:34;97120.00;;;8.57;96.67
39769;BME280;38939;47.824;14.642;2023-04-19T02:23:36;97115.53;;;8.51;97.21
39769;BME280;38939;47.824;14.642;2023-04-19T02:24:38;97121.69;;;8.50;96.89
39769;BME280;38939;47.824;14.642;2023-04-19T02:25:40;97121.06;;;8.48;97.13
39769;BME280;38939;47.824;14.642;2023-04-19T02:26:41;97117.50;;;8.49;97.42
39769;BME280;38939;47.824;14.642;2023-04-19T02:27:43;97115.06;;;8.48;97.82
39769;BME280;38939;47.824;14.642;2023-04-19T02:28:45;97115.06;;;8.48;97.46
39769;BME280;38939;47.824;14.642;2023-04-19T02:29:47;97112.31;;;8.49;98.14
39769;BME280;38939;47.824;14.642;2023-04-19T02:30:49;97106.94;;;8.51;97.66
39769;BME280;38939;47.824;14.642;2023-04-19T02:31:51;97111.91;;;8.52;97.54
39769;BME280;38939;47.824;14.642;2023-04-19T02:32:53;97105.91;;;8.52;97.38
39769;BME280;38939;47.824;14.642;2023-04-19T02:33:55;97118.75;;;8.53;97.80
39769;BME280;38939;47.824;14.642;2023-04-19T02:34:57;97107.72;;;8.51;97.39
39769;BME280;38939;47.824;14.642;2023-04-19T02:35:59;97098.91;;;8.52;97.69
39769;BME280;38939;47.824;14.642;2023-04-19T02:37:01;97106.53;;;8.54;97.84
39769;BME280;38939;47.824;14.642;2023-04-19T02:38:03;97093.53;;;8.54;97.39
39769;BME280;38939;47.824;14.642;2023-04-19T02:39:05;97100.53;;;8.53;97.46
39769;BME280;38939;47.824;14.642;2023-04-19T02:40:07;97095.53;;;8.52;97.28
39769;BME280;38939;47.824;14.642;2023-04-19T02:41:09;97102.34;;;8.53;97.29
39769;BME280;38939;47.824;14.642;2023-04-19T02:42:11;97100.38;;;8.55;97.07
39769;BME280;38939;47.824;14.642;2023-04-19T02:43:13;97105.38;;;8.56;96.94
39769;BME280;38939;47.824;14.642;2023-04-19T02:44:15;97097.59;;;8.56;97.01
39769;BME280;38939;47.824;14.642;2023-04-19T02:45:17;97100.38;;;8.55;97.03
39769;BME280;38939;47.824;14.642;2023-04-19T02:46:19;97095.16;;;8.55;97.07
39769;BME280;38939;47.824;14.642;2023-04-19T02:47:21;97090.94;;;8.54;96.75
39769;BME280;38939;47.824;14.642;2023-04-19T02:48:22;97087.53;;;8.53;97.17
39769;BME280;38939;47.824;14.642;2023-04-19T02:49:26;97089.16;;;8.54;97.16
39769;BME280;38939;47.824;14.642;2023-04-19T02:50:28;97094.16;;;8.56;96.90
39769;BME280;38939;47.824;14.642;2023-04-19T02:51:30;97092.38;;;8.56;97.06
39769;BME280;38939;47.824;14.642;2023-04-19T02:52:32;97093.72;;;8.52;97.39
39769;BME280;38939;47.824;14.642;2023-04-19T02:53:34;97093.91;;;8.51;96.91
39769;BME280;38939;47.824;14.642;2023-04-19T02:54:36;97090.50;;;8.50;97.67
39769;BME280;38939;47.824;14.642;2023-04-19T02:55:38;97093.09;;;8.50;97.64
39769;BME280;38939;47.824;14.642;2023-04-19T02:56:40;97100.72;;;8.52;97.38
39769;BME280;38939;47.824;14.642;2023-04-19T02:57:43;97095.34;;;8.53;97.03
39769;BME280;38939;47.824;14.642;2023-04-19T02:58:45;97092.38;;;8.56;97.26
39769;BME280;38939;47.824;14.642;2023-04-19T02:59:47;97093.19;;;8.57;97.00
39769;BME280;38939;47.824;14.642;2023-04-19T03:00:49;97086.97;;;8.58;97.21
39769;BME280;38939;47.824;14.642;2023-04-19T03:01:51;97093.63;;;8.60;97.10
39769;BME280;38939;47.824;14.642;2023-04-19T03:02:54;97091.66;;;8.63;96.98
39769;BME280;38939;47.824;14.642;2023-04-19T03:03:57;97089.84;;;8.63;96.61
39769;BME280;38939;47.824;14.642;2023-04-19T03:04:58;97092.28;;;8.65;96.82
39769;BME280;38939;47.824;14.642;2023-04-19T03:06:00;97091.25;;;8.66;96.62
39769;BME280;38939;47.824;14.642;2023-04-19T03:07:02;97088.03;;;8.64;96.64
39769;BME280;38939;47.824;14.642;2023-04-19T03:08:04;97092.44;;;8.63;96.61
39769;BME280;38939;47.824;14.642;2023-04-19T03:09:06;97086.44;;;8.63;96.51
39769;BME280;38939;47.824;14.642;2023-04-19T03:10:08;97093.63;;;8.60;96.86
39769;BME280;38939;47.824;14.642;2023-04-19T03:11:10;97082.59;;;8.58;96.81
39769;BME280;38939;47.824;14.642;2023-04-19T03:12:12;97095.00;;;8.56;96.34
39769;BME280;38939;47.824;14.642;2023-04-19T03:13:15;97082.69;;;8.50;96.67
39769;BME280;38939;47.824;14.642;2023-04-19T03:14:17;97085.06;;;8.45;96.95
39769;BME280;38939;47.824;14.642;2023-04-19T03:15:19;97079.06;;;8.45;97.38
39769;BME280;38939;47.824;14.642;2023-04-19T03:16:21;97073.03;;;8.44;97.33
39769;BME280;38939;47.824;14.642;2023-04-19T03:17:23;97083.44;;;8.44;97.39
39769;BME280;38939;47.824;14.642;2023-04-19T03:18:25;97085.41;;;8.42;97.35
39769;BME280;38939;47.824;14.642;2023-04-19T03:19:27;97079.41;;;8.41;97.69
39769;BME280;38939;47.824;14.642;2023-04-19T03:20:30;97080.81;;;8.44;97.76
39769;BME280;38939;47.824;14.642;2023-04-19T03:21:31;97074.28;;;8.48;97.78
39769;BME280;38939;47.824;14.642;2023-04-19T03:22:33;97074.88;;;8.50;97.38
39769;BME280;38939;47.824;14.642;2023-04-19T03:23:36;97074.53;;;8.53;97.81
39769;BME280;38939;47.824;14.642;2023-04-19T03:24:38;97075.16;;;8.55;97.53
39769;BME280;38939;47.824;14.642;2023-04-19T03:25:40;97078.38;;;8.57;97.63
39769;BME280;38939;47.824;14.642;2023-04-19T03:26:41;97075.78;;;8.57;97.60
39769;BME280;38939;47.824;14.642;2023-04-19T03:27:43;97074.19;;;8.56;97.48
39769;BME280;38939;47.824;14.642;2023-04-19T03:28:48;97068.16;;;8.56;97.18
39769;BME280;38939;47.824;14.642;2023-04-19T03:29:50;97066.75;;;8.53;96.94
39769;BME280;38939;47.824;14.642;2023-04-19T03:30:53;97075.50;;;8.52;97.43
39769;BME280;38939;47.824;14.642;2023-04-19T03:31:55;97067.91;;;8.51;97.02
39769;BME280;38939;47.824;14.642;2023-04-19T03:32:56;97064.50;;;8.50;97.52
39769;BME280;38939;47.824;14.642;2023-04-19T03:34:00;97065.31;;;8.51;97.38
39769;BME280;38939;47.824;14.642;2023-04-19T03:35:02;97063.88;;;8.48;96.87
39769;BME280;38939;47.824;14.642;2023-04-19T03:36:04;97058.66;;;8.48;97.07
39769;BME280;38939;47.824;14.642;2023-04-19T03:37:06;97061.09;;;8.50;97.08
39769;BME280;38939;47.824;14.642;2023-04-19T03:38:08;97061.72;;;8.52;97.01
39769;BME280;38939;47.824;14.642;2023-04-19T03:39:10;97068.34;;;8.54;97.22
39769;BME280;38939;47.824;14.642;2023-04-19T03:40:12;97058.59;;;8.56;96.90
39769;BME280;38939;47.824;14.642;2023-04-19T03:41:20;97062.78;;;8.57;96.55
39769;BME280;38939;47.824;14.642;2023-04-19T03:42:22;97057.56;;;8.57;96.95
39769;BME280;38939;47.824;14.642;2023-04-19T03:43:24;97067.63;;;8.60;96.86
39769;BME280;38939;47.824;14.642;2023-04-19T03:44:26;97060.44;;;8.63;97.11
39769;BME280;38939;47.824;14.642;2023-04-19T03:45:28;97062.84;;;8.64;96.67
39769;BME280;38939;47.824;14.642;2023-04-19T03:46:30;97059.63;;;8.62;96.54
39769;BME280;38939;47.824;14.642;2023-04-19T03:47:32;97059.63;;;8.62;96.56
39769;BME280;38939;47.824;14.642;2023-04-19T03:48:34;97057.22;;;8.60;96.30
39769;BME280;38939;47.824;14.642;2023-04-19T03:49:36;97065.03;;;8.60;96.64
39769;BME280;38939;47.824;14.642;2023-04-19T03:50:38;97058.00;;;8.61;96.64
39769;BME280;38939;47.824;14.642;2023-04-19T03:51:39;97064.81;;;8.62;96.67
39769;BME280;38939;47.824;14.642;2023-04-19T03:52:41;97063.84;;;8.63;96.56
39769;BME280;38939;47.824;14.642;2023-04-19T03:53:43;97062.41;;;8.60;96.26
39769;BME280;38939;47.824;14.642;2023-04-19T03:54:45;97066.19;;;8.58;96.69
39769;BME280;38939;47.824;14.642;2023-04-19T03:55:47;97065.56;;;8.56;96.54
39769;BME280;38939;47.824;14.642;2023-04-19T03:56:49;97061.34;;;8.55;96.41
39769;BME280;38939;47.824;14.642;2023-04-19T03:57:51;97069.34;;;8.53;96.78
39769;BME280;38939;47.824;14.642;2023-04-19T03:58:52;97064.13;;;8.53;96.38
39769;BME280;38939;47.824;14.642;2023-04-19T03:59:54;97062.34;;;8.54;96.34
39769;BME280;38939;47.824;14.642;2023-04-19T04:00:57;97062.50;;;8.52;96.67
39769;BME280;38939;47.824;14.642;2023-04-19T04:01:59;97054.91;;;8.51;96.37
39769;BME280;38939;47.824;14.642;2023-04-19T04:03:01;97059.91;;;8.52;96.43
39769;BME280;38939;47.824;14.642;2023-04-19T04:04:03;97061.53;;;8.53;96.40
39769;BME280;38939;47.824;14.642;2023-04-19T04:05:06;97063.06;;;8.48;96.98
39769;BME280;38939;47.824;14.642;2023-04-19T04:06:08;97059.84;;;8.46;97.16
39769;BME280;38939;47.824;14.642;2023-04-19T04:07:10;97053.84;;;8.45;96.75
39769;BME280;38939;47.824;14.642;2023-04-19T04:08:11;97058.25;;;8.45;96.89
39769;BME280;38939;47.824;14.642;2023-04-19T04:09:14;97056.28;;;8.47;96.44
39769;BME280;38939;47.824;14.642;2023-04-19T04:10:16;97060.28;;;8.49;96.50
39769;BME280;38939;47.824;14.642;2023-04-19T04:11:18;97054.28;;;8.49;96.47
39769;BME280;38939;47.824;14.642;2023-04-19T04:12:20;97056.69;;;8.50;96.39
39769;BME280;38939;47.824;14.642;2023-04-19T04:13:21;97060.28;;;8.49;96.83
39769;BME280;38939;47.824;14.642;2023-04-19T04:14:23;97058.25;;;8.45;96.36
39769;BME280;38939;47.824;14.642;2023-04-19T04:15:26;97061.03;;;8.43;96.53
39769;BME280;38939;47.824;14.642;2023-04-19T04:16:28;97059.41;;;8.42;97.18
39769;BME280;38939;47.824;14.642;2023-04-19T04:17:30;97061.03;;;8.43;96.78
39769;BME280;38939;47.824;14.642;2023-04-19T04:18:32;97061.34;;;8.40;96.92
39769;BME280;38939;47.824;14.642;2023-04-19T04:19:34;97060.41;;;8.41;96.93
39769;BME280;38939;47.824;14.642;2023-04-19T04:20:35;97061.03;;;8.43;97.25
39769;BME280;38939;47.824;14.642;2023-04-19T04:21:37;97063.63;;;8.43;97.12
39769;BME280;38939;47.824;14.642;2023-04-19T04:22:42;97061.81;;;8.44;96.95
39769;BME280;38939;47.824;14.642;2023-04-19T04:23:44;97059.06;;;8.45;96.95
39769;BME280;38939;47.824;14.642;2023-04-19T04:24:47;97065.06;;;8.46;96.71
39769;BME280;38939;47.824;14.642;2023-04-19T04:25:58;97063.25;;;8.46;96.66
39769;BME280;38939;47.824;14.642;2023-04-19T04:27:04;97064.25;;;8.45;97.00
39769;BME280;38939;47.824;14.642;2023-04-19T04:28:08;97056.44;;;8.45;97.15
39769;BME280;38939;47.824;14.642;2023-04-19T04:29:10;97060.03;;;8.44;96.72
39769;BME280;38939;47.824;14.642;2023-04-19T04:30:12;97054.81;;;8.44;96.87
39769;BME280;38939;47.824;14.642;2023-04-19T04:31:14;97064.59;;;8.42;96.88
39769;BME280;38939;47.824;14.642;2023-04-19T04:32:18;97057.44;;;8.44;96.85
39769;BME280;38939;47.824;14.642;2023-04-19T04:33:24;97059.06;;;8.45;96.76
39769;BME280;38939;47.824;14.642;2023-04-19T04:34:27;97052.84;;;8.46;96.86
39769;BME280;38939;47.824;14.642;2023-04-19T04:35:28;97054.66;;;8.46;96.55
39769;BME280;38939;47.824;14.642;2023-04-19T04:36:31;97059.66;;;8.47;96.56
39769;BME280;38939;47.824;14.642;2023-04-19T04:37:33;97062.63;;;8.44;96.92
39769;BME280;38939;47.824;14.642;2023-04-19T04:38:35;97056.53;;;8.37;96.91
39769;BME280;38939;47.824;14.642;2023-04-19T04:39:37;97055.28;;;8.33;97.15
39769;BME280;38939;47.824;14.642;2023-04-19T04:40:40;97052.53;;;8.34;96.81
39769;BME280;38939;47.824;14.642;2023-04-19T04:41:42;97052.31;;;8.36;97.24
39769;BME280;38939;47.824;14.642;2023-04-19T04:42:44;97054.13;;;8.35;97.30
39769;BME280;38939;47.824;14.642;2023-04-19T04:43:46;97060.13;;;8.36;97.14
39769;BME280;38939;47.824;14.642;2023-04-19T04:45:11;97047.56;;;8.39;97.53
39769;BME280;38939;47.824;14.642;2023-04-19T04:46:13;97050.00;;;8.41;97.27
39769;BME280;38939;47.824;14.642;2023-04-19T04:47:15;97049.84;;;8.43;96.96
39769;BME280;38939;47.824;14.642;2023-04-19T04:48:17;97054.03;;;8.44;97.32
39769;BME280;38939;47.824;14.642;2023-04-19T04:49:19;97051.25;;;8.45;97.07
39769;BME280;38939;47.824;14.642;2023-04-19T04:50:21;97050.25;;;8.46;96.85
39769;BME280;38939;47.824;14.642;2023-04-19T04:51:23;97049.44;;;8.46;96.72
39769;BME280;38939;47.824;14.642;2023-04-19T04:52:25;97058.03;;;8.46;97.01
39769;BME280;38939;47.824;14.642;2023-04-19T04:53:27;97051.88;;;8.47;97.37
39769;BME280;38939;47.824;14.642;2023-04-19T04:54:29;97046.28;;;8.50;97.46
39769;BME280;38939;47.824;14.642;2023-04-19T04:55:31;97047.47;;;8.48;96.73
39769;BME280;38939;47.824;14.642;2023-04-19T04:56:33;97051.06;;;8.47;97.18
39769;BME280;38939;47.824;14.642;2023-04-19T04:57:35;97044.69;;;8.49;96.92
39769;BME280;38939;47.824;14.642;2023-04-19T04:58:37;97045.31;;;8.51;96.91
39769;BME280;38939;47.824;14.642;2023-04-19T04:59:38;97049.50;;;8.52;97.01
39769;BME280;38939;47.824;14.642;2023-04-19T05:00:41;97044.31;;;8.52;96.83
39769;BME280;38939;47.824;14.642;2023-04-19T05:01:43;97042.72;;;8.51;96.52
39769;BME280;38939;47.824;14.642;2023-04-19T05:02:45;97043.91;;;8.49;96.70
39769;BME280;38939;47.824;14.642;2023-04-19T05:03:47;97048.25;;;8.48;96.97
39769;BME280;38939;47.824;14.642;2023-04-19T05:04:49;97044.88;;;8.48;96.58
39769;BME280;38939;47.824;14.642;2023-04-19T05:05:51;97052.50;;;8.49;96.47
39769;BME280;38939;47.824;14.642;2023-04-19T05:06:52;97054.72;;;8.52;96.56
39769;BME280;38939;47.824;14.642;2023-04-19T05:07:54;97051.94;;;8.54;96.82
39769;BME280;38939;47.824;14.642;2023-04-19T05:08:56;97054.34;;;8.55;96.45
39769;BME280;38939;47.824;14.642;2023-04-19T05:09:58;97045.56;;;8.56;96.87
39769;BME280;38939;47.824;14.642;2023-04-19T05:11:00;97057.56;;;8.57;96.79
39769;BME280;38939;47.824;14.642;2023-04-19T05:12:02;97054.00;;;8.58;96.72
39769;BME280;38939;47.824;14.642;2023-04-19T05:13:04;97054.00;;;8.58;96.60
39769;BME280;38939;47.824;14.642;2023-04-19T05:14:06;97053.16;;;8.58;96.63
39769;BME280;38939;47.824;14.642;2023-04-19T05:15:07;97044.41;;;8.59;96.83
39769;BME280;38939;47.824;14.642;2023-04-19T05:16:09;97041.00;;;8.58;96.98
39769;BME280;38939;47.824;14.642;2023-04-19T05:17:11;97045.00;;;8.61;96.50
39769;BME280;38939;47.824;14.642;2023-04-19T05:18:13;97045.00;;;8.61;96.65
39769;BME280;38939;47.824;14.642;2023-04-19T05:19:15;97043.38;;;8.60;96.21
39769;BME280;38939;47.824;14.642;2023-04-19T05:20:17;97039.00;;;8.60;96.35
39769;BME280;38939;47.824;14.642;2023-04-19T05:21:19;97036.41;;;8.60;96.42
39769;BME280;38939;47.824;14.642;2023-04-19T05:22:21;97032.97;;;8.60;96.29
39769;BME280;38939;47.824;14.642;2023-04-19T05:23:24;97034.44;;;8.63;96.34
39769;BME280;38939;47.824;14.642;2023-04-19T05:24:26;97036.81;;;8.64;96.33
39769;BME280;38939;47.824;14.642;2023-04-19T05:25:28;97037.66;;;8.65;96.16
39769;BME280;38939;47.824;14.642;2023-04-19T05:26:30;97038.63;;;8.64;96.23
39769;BME280;38939;47.824;14.642;2023-04-19T05:27:32;97034.44;;;8.63;96.17
39769;BME280;38939;47.824;14.642;2023-04-19T05:28:34;97029.84;;;8.65;96.42
39769;BME280;38939;47.824;14.642;2023-04-19T05:29:36;97031.00;;;8.62;96.91